sensor_id;sensor_type;location;lat;lon;timestamp;P1;durP1;ratioP1;P2;durP2;ratioP2
2289;SDS011;1153;47.986;7.898;2023-07-08T00:01:12;7.20;;;2.20;;
2289;SDS011;1153;47.986;7.898;2023-07-08T00:03:38;3.83;;;2.70;;
2289;SDS011;1153;47.986;7.898;2023-07-08T00:06:03;1.93;;;1.60;;
2289;SDS011;1153;47.986;7.898;2023-07-08T00:08:28;3.50;;;1.73;;
2289;SDS011;1153;47.986;7.898;2023-07-08T00:10:54;3.57;;;1.87;;
2289;SDS011;1153;47.986;7.898;2023-07-08T00:13:19;2.37;;;1.50;;
2289;SDS011;1153;47.986;7.898;2023-07-08T00:15:44;2.47;;;2.07;;
2289;SDS011;1153;47.986;7.898;2023-07-08T00:18:14;7.47;;;1.80;;
2289;SDS011;1153;47.986;7.898;2023-07-08T00:20:49;2.63;;;2.43;;
2289;SDS011;1153;47.986;7.898;2023-07-08T00:23:14;2.20;;;2.00;;
2289;SDS011;1153;47.986;7.898;2023-07-08T00:25:40;2.47;;;1.87;;
2289;SDS011;1153;47.986;7.898;2023-07-08T00:28:16;4.70;;;2.00;;
2289;SDS011;1153;47.986;7.898;2023-07-08T00:30:41;5.73;;;2.40;;
2289;SDS011;1153;47.986;7.898;2023-07-08T00:33:07;4.97;;;1.70;;
2289;SDS011;1153;47.986;7.898;2023-07-08T00:37:57;6.17;;;2.30;;
2289;SDS011;1153;47.986;7.898;2023-07-08T00:40:26;4.37;;;2.00;;
2289;SDS011;1153;47.986;7.898;2023-07-08T00:42:51;3.10;;;1.60;;
2289;SDS011;1153;47.986;7.898;2023-07-08T00:47:42;4.30;;;1.63;;
2289;SDS011;1153;47.986;7.898;2023-07-08T00:50:08;3.03;;;2.00;;
2289;SDS011;1153;47.986;7.898;2023-07-08T00:52:36;6.57;;;2.40;;
2289;SDS011;1153;47.986;7.898;2023-07-08T00:55:05;1.47;;;1.17;;
2289;SDS011;1153;47.986;7.898;2023-07-08T00:57:32;8.53;;;2.23;;
2289;SDS011;1153;47.986;7.898;2023-07-08T01:00:03;2.77;;;2.57;;
2289;SDS011;1153;47.986;7.898;2023-07-08T01:02:29;3.97;;;2.37;;
2289;SDS011;1153;47.986;7.898;2023-07-08T01:05:06;6.93;;;2.40;;
2289;SDS011;1153;47.986;7.898;2023-07-08T01:07:35;4.20;;;2.10;;
2289;SDS011;1153;47.986;7.898;2023-07-08T01:10:02;3.60;;;2.57;;
2289;SDS011;1153;47.986;7.898;2023-07-08T01:12:33;2.13;;;1.93;;
2289;SDS011;1153;47.986;7.898;2023-07-08T01:14:59;2.73;;;1.73;;
2289;SDS011;1153;47.986;7.898;2023-07-08T01:17:27;3.23;;;2.30;;
2289;SDS011;1153;47.986;7.898;2023-07-08T01:19:58;5.60;;;2.70;;
2289;SDS011;1153;47.986;7.898;2023-07-08T01:22:23;5.43;;;2.20;;
2289;SDS011;1153;47.986;7.898;2023-07-08T01:24:48;3.40;;;2.50;;
2289;SDS011;1153;47.986;7.898;2023-07-08T01:27:15;9.10;;;2.30;;
2289;SDS011;1153;47.986;7.898;2023-07-08T01:29:41;2.73;;;2.47;;
2289;SDS011;1153;47.986;7.898;2023-07-08T01:32:06;2.83;;;2.03;;
2289;SDS011;1153;47.986;7.898;2023-07-08T01:34:32;2.50;;;2.30;;
2289;SDS011;1153;47.986;7.898;2023-07-08T01:36:58;3.77;;;2.00;;
2289;SDS011;1153;47.986;7.898;2023-07-08T01:39:24;2.20;;;2.00;;
2289;SDS011;1153;47.986;7.898;2023-07-08T01:41:50;4.53;;;1.70;;
2289;SDS011;1153;47.986;7.898;2023-07-08T01:44:35;3.10;;;2.10;;
2289;SDS011;1153;47.986;7.898;2023-07-08T01:47:14;4.90;;;2.23;;
2289;SDS011;1153;47.986;7.898;2023-07-08T01:49:42;4.90;;;2.30;;
2289;SDS011;1153;47.986;7.898;2023-07-08T01:52:08;3.73;;;2.27;;
2289;SDS011;1153;47.986;7.898;2023-07-08T01:54:33;5.37;;;1.70;;
2289;SDS011;1153;47.986;7.898;2023-07-08T01:56:58;2.73;;;2.53;;
2289;SDS011;1153;47.986;7.898;2023-07-08T01:59:25;2.83;;;2.03;;
2289;SDS011;1153;47.986;7.898;2023-07-08T02:01:51;5.13;;;2.00;;
2289;SDS011;1153;47.986;7.898;2023-07-08T02:04:19;2.13;;;1.53;;
2289;SDS011;1153;47.986;7.898;2023-07-08T02:06:50;2.83;;;2.23;;
2289;SDS011;1153;47.986;7.898;2023-07-08T02:09:15;1.90;;;1.67;;
2289;SDS011;1153;47.986;7.898;2023-07-08T02:11:40;2.67;;;2.10;;
2289;SDS011;1153;47.986;7.898;2023-07-08T02:14:05;4.83;;;1.67;;
2289;SDS011;1153;47.986;7.898;2023-07-08T02:16:31;3.97;;;2.03;;
2289;SDS011;1153;47.986;7.898;2023-07-08T02:18:56;7.27;;;1.83;;
2289;SDS011;1153;47.986;7.898;2023-07-08T02:21:21;3.33;;;1.80;;
2289;SDS011;1153;47.986;7.898;2023-07-08T02:23:48;2.20;;;1.97;;
2289;SDS011;1153;47.986;7.898;2023-07-08T02:26:14;4.17;;;1.77;;
2289;SDS011;1153;47.986;7.898;2023-07-08T02:28:39;2.03;;;1.83;;
2289;SDS011;1153;47.986;7.898;2023-07-08T02:31:04;3.53;;;2.03;;
2289;SDS011;1153;47.986;7.898;2023-07-08T02:33:29;4.23;;;1.83;;
2289;SDS011;1153;47.986;7.898;2023-07-08T02:35:57;2.50;;;2.00;;
2289;SDS011;1153;47.986;7.898;2023-07-08T02:38:23;1.80;;;1.50;;
2289;SDS011;1153;47.986;7.898;2023-07-08T02:40:48;2.37;;;2.10;;
2289;SDS011;1153;47.986;7.898;2023-07-08T02:43:13;5.70;;;2.30;;
2289;SDS011;1153;47.986;7.898;2023-07-08T02:45:38;5.53;;;2.60;;
2289;SDS011;1153;47.986;7.898;2023-07-08T02:48:03;2.43;;;1.67;;
2289;SDS011;1153;47.986;7.898;2023-07-08T02:50:29;3.23;;;2.30;;
2289;SDS011;1153;47.986;7.898;2023-07-08T02:52:54;1.73;;;1.60;;
2289;SDS011;1153;47.986;7.898;2023-07-08T02:55:19;2.73;;;1.50;;
2289;SDS011;1153;47.986;7.898;2023-07-08T02:57:44;3.00;;;1.87;;
2289;SDS011;1153;47.986;7.898;2023-07-08T03:00:09;2.53;;;2.03;;
2289;SDS011;1153;47.986;7.898;2023-07-08T03:02:35;3.57;;;1.90;;
2289;SDS011;1153;47.986;7.898;2023-07-08T03:05:00;7.80;;;2.80;;
2289;SDS011;1153;47.986;7.898;2023-07-08T03:07:26;3.80;;;2.30;;
2289;SDS011;1153;47.986;7.898;2023-07-08T03:09:51;3.50;;;3.00;;
2289;SDS011;1153;47.986;7.898;2023-07-08T03:12:16;14.13;;;2.80;;
2289;SDS011;1153;47.986;7.898;2023-07-08T03:14:41;6.40;;;2.80;;
2289;SDS011;1153;47.986;7.898;2023-07-08T03:17:06;3.10;;;2.87;;
2289;SDS011;1153;47.986;7.898;2023-07-08T03:19:32;3.10;;;2.80;;
2289;SDS011;1153;47.986;7.898;2023-07-08T03:21:57;3.93;;;2.80;;
2289;SDS011;1153;47.986;7.898;2023-07-08T03:24:23;4.80;;;3.43;;
2289;SDS011;1153;47.986;7.898;2023-07-08T03:26:49;4.83;;;2.33;;
2289;SDS011;1153;47.986;7.898;2023-07-08T03:29:19;3.53;;;2.23;;
2289;SDS011;1153;47.986;7.898;2023-07-08T03:31:44;5.40;;;1.63;;
2289;SDS011;1153;47.986;7.898;2023-07-08T03:34:10;24.63;;;3.20;;
2289;SDS011;1153;47.986;7.898;2023-07-08T03:36:36;2.50;;;2.30;;
2289;SDS011;1153;47.986;7.898;2023-07-08T03:39:05;5.80;;;2.30;;
2289;SDS011;1153;47.986;7.898;2023-07-08T03:41:30;3.50;;;3.13;;
2289;SDS011;1153;47.986;7.898;2023-07-08T03:43:55;3.03;;;2.30;;
2289;SDS011;1153;47.986;7.898;2023-07-08T03:46:21;10.67;;;2.60;;
2289;SDS011;1153;47.986;7.898;2023-07-08T03:48:46;3.23;;;2.80;;
2289;SDS011;1153;47.986;7.898;2023-07-08T03:51:16;3.03;;;2.00;;
2289;SDS011;1153;47.986;7.898;2023-07-08T03:53:42;5.30;;;2.40;;
2289;SDS011;1153;47.986;7.898;2023-07-08T03:56:08;8.70;;;2.03;;
2289;SDS011;1153;47.986;7.898;2023-07-08T03:58:36;2.73;;;2.20;;
2289;SDS011;1153;47.986;7.898;2023-07-08T04:01:01;2.50;;;2.23;;
2289;SDS011;1153;47.986;7.898;2023-07-08T04:03:26;4.03;;;2.20;;
2289;SDS011;1153;47.986;7.898;2023-07-08T04:05:51;2.33;;;1.43;;
2289;SDS011;1153;47.986;7.898;2023-07-08T04:08:16;2.77;;;1.67;;
2289;SDS011;1153;47.986;7.898;2023-07-08T04:10:42;4.33;;;1.43;;
2289;SDS011;1153;47.986;7.898;2023-07-08T04:13:07;4.57;;;1.77;;
2289;SDS011;1153;47.986;7.898;2023-07-08T04:15:32;6.80;;;1.70;;
2289;SDS011;1153;47.986;7.898;2023-07-08T04:17:57;1.63;;;1.53;;
2289;SDS011;1153;47.986;7.898;2023-07-08T04:20:23;1.60;;;1.50;;
2289;SDS011;1153;47.986;7.898;2023-07-08T04:22:48;2.10;;;1.83;;
2289;SDS011;1153;47.986;7.898;2023-07-08T04:25:13;1.93;;;0.70;;
2289;SDS011;1153;47.986;7.898;2023-07-08T04:27:39;3.13;;;0.90;;
2289;SDS011;1153;47.986;7.898;2023-07-08T04:30:05;1.23;;;1.13;;
2289;SDS011;1153;47.986;7.898;2023-07-08T04:32:30;6.13;;;1.60;;
2289;SDS011;1153;47.986;7.898;2023-07-08T04:34:55;2.03;;;0.57;;
2289;SDS011;1153;47.986;7.898;2023-07-08T04:37:21;1.30;;;0.50;;
2289;SDS011;1153;47.986;7.898;2023-07-08T04:39:46;1.57;;;0.60;;
2289;SDS011;1153;47.986;7.898;2023-07-08T04:42:11;2.37;;;0.80;;
2289;SDS011;1153;47.986;7.898;2023-07-08T04:44:42;0.97;;;0.80;;
2289;SDS011;1153;47.986;7.898;2023-07-08T04:47:07;1.57;;;0.60;;
2289;SDS011;1153;47.986;7.898;2023-07-08T04:49:38;1.80;;;0.90;;
2289;SDS011;1153;47.986;7.898;2023-07-08T04:52:06;2.33;;;0.50;;
2289;SDS011;1153;47.986;7.898;2023-07-08T04:54:31;2.93;;;0.80;;
2289;SDS011;1153;47.986;7.898;2023-07-08T04:56:57;3.93;;;0.60;;
2289;SDS011;1153;47.986;7.898;2023-07-08T04:59:22;1.20;;;0.70;;
2289;SDS011;1153;47.986;7.898;2023-07-08T05:01:48;1.67;;;0.70;;
2289;SDS011;1153;47.986;7.898;2023-07-08T05:04:14;1.20;;;0.80;;
2289;SDS011;1153;47.986;7.898;2023-07-08T05:06:39;1.73;;;0.63;;
2289;SDS011;1153;47.986;7.898;2023-07-08T05:09:04;1.30;;;0.70;;
2289;SDS011;1153;47.986;7.898;2023-07-08T05:11:30;6.63;;;0.80;;
2289;SDS011;1153;47.986;7.898;2023-07-08T05:13:55;1.87;;;1.10;;
2289;SDS011;1153;47.986;7.898;2023-07-08T05:16:20;1.07;;;0.60;;
2289;SDS011;1153;47.986;7.898;2023-07-08T05:18:46;2.80;;;0.63;;
2289;SDS011;1153;47.986;7.898;2023-07-08T05:21:11;1.90;;;0.83;;
2289;SDS011;1153;47.986;7.898;2023-07-08T05:23:36;1.20;;;0.80;;
2289;SDS011;1153;47.986;7.898;2023-07-08T05:26:02;1.50;;;0.60;;
2289;SDS011;1153;47.986;7.898;2023-07-08T05:28:28;0.90;;;0.60;;
2289;SDS011;1153;47.986;7.898;2023-07-08T05:30:54;1.10;;;0.50;;
2289;SDS011;1153;47.986;7.898;2023-07-08T05:33:23;1.40;;;0.50;;
2289;SDS011;1153;47.986;7.898;2023-07-08T05:35:48;1.60;;;0.70;;
2289;SDS011;1153;47.986;7.898;2023-07-08T05:38:13;1.63;;;0.60;;
2289;SDS011;1153;47.986;7.898;2023-07-08T05:40:38;1.00;;;0.50;;
2289;SDS011;1153;47.986;7.898;2023-07-08T05:43:03;1.03;;;0.70;;
2289;SDS011;1153;47.986;7.898;2023-07-08T05:45:29;1.00;;;0.70;;
2289;SDS011;1153;47.986;7.898;2023-07-08T05:47:55;1.80;;;0.80;;
2289;SDS011;1153;47.986;7.898;2023-07-08T05:50:20;3.33;;;0.70;;
2289;SDS011;1153;47.986;7.898;2023-07-08T05:52:45;1.73;;;0.60;;
2289;SDS011;1153;47.986;7.898;2023-07-08T05:55:10;1.87;;;0.60;;
2289;SDS011;1153;47.986;7.898;2023-07-08T05:57:36;1.27;;;1.07;;
2289;SDS011;1153;47.986;7.898;2023-07-08T06:00:01;1.00;;;0.63;;
2289;SDS011;1153;47.986;7.898;2023-07-08T06:02:26;2.57;;;0.70;;
2289;SDS011;1153;47.986;7.898;2023-07-08T06:04:51;1.00;;;0.87;;
2289;SDS011;1153;47.986;7.898;2023-07-08T06:07:17;0.90;;;0.50;;
2289;SDS011;1153;47.986;7.898;2023-07-08T06:09:42;1.43;;;0.70;;
2289;SDS011;1153;47.986;7.898;2023-07-08T06:12:07;2.00;;;0.60;;
2289;SDS011;1153;47.986;7.898;2023-07-08T06:14:33;1.73;;;0.50;;
2289;SDS011;1153;47.986;7.898;2023-07-08T06:16:58;2.27;;;0.67;;
2289;SDS011;1153;47.986;7.898;2023-07-08T06:19:23;2.27;;;0.57;;
2289;SDS011;1153;47.986;7.898;2023-07-08T06:21:48;1.00;;;0.50;;
2289;SDS011;1153;47.986;7.898;2023-07-08T06:24:14;2.07;;;0.83;;
2289;SDS011;1153;47.986;7.898;2023-07-08T06:26:39;1.10;;;0.70;;
2289;SDS011;1153;47.986;7.898;2023-07-08T06:29:04;0.70;;;0.50;;
2289;SDS011;1153;47.986;7.898;2023-07-08T06:31:30;1.60;;;0.83;;
2289;SDS011;1153;47.986;7.898;2023-07-08T06:33:55;1.40;;;0.60;;
2289;SDS011;1153;47.986;7.898;2023-07-08T06:36:20;1.60;;;0.40;;
2289;SDS011;1153;47.986;7.898;2023-07-08T06:38:45;0.83;;;0.50;;
2289;SDS011;1153;47.986;7.898;2023-07-08T06:41:11;1.10;;;0.60;;
2289;SDS011;1153;47.986;7.898;2023-07-08T06:43:36;1.00;;;0.50;;
2289;SDS011;1153;47.986;7.898;2023-07-08T06:46:01;2.20;;;0.70;;
2289;SDS011;1153;47.986;7.898;2023-07-08T06:48:26;1.00;;;0.73;;
2289;SDS011;1153;47.986;7.898;2023-07-08T06:50:51;1.13;;;0.70;;
2289;SDS011;1153;47.986;7.898;2023-07-08T06:53:17;1.57;;;0.50;;
2289;SDS011;1153;47.986;7.898;2023-07-08T06:55:45;0.80;;;0.50;;
2289;SDS011;1153;47.986;7.898;2023-07-08T06:58:10;0.83;;;0.63;;
2289;SDS011;1153;47.986;7.898;2023-07-08T07:00:35;1.20;;;0.50;;
2289;SDS011;1153;47.986;7.898;2023-07-08T07:03:01;1.50;;;0.60;;
2289;SDS011;1153;47.986;7.898;2023-07-08T07:05:26;1.03;;;0.57;;
2289;SDS011;1153;47.986;7.898;2023-07-08T07:07:51;0.90;;;0.50;;
2289;SDS011;1153;47.986;7.898;2023-07-08T07:10:17;0.70;;;0.50;;
2289;SDS011;1153;47.986;7.898;2023-07-08T07:12:42;1.77;;;0.80;;
2289;SDS011;1153;47.986;7.898;2023-07-08T07:15:08;2.20;;;0.70;;
2289;SDS011;1153;47.986;7.898;2023-07-08T07:17:33;2.00;;;0.50;;
2289;SDS011;1153;47.986;7.898;2023-07-08T07:20:00;0.80;;;0.50;;
2289;SDS011;1153;47.986;7.898;2023-07-08T07:22:25;1.03;;;0.77;;
2289;SDS011;1153;47.986;7.898;2023-07-08T07:24:50;0.90;;;0.50;;
2289;SDS011;1153;47.986;7.898;2023-07-08T07:27:16;1.67;;;0.70;;
2289;SDS011;1153;47.986;7.898;2023-07-08T07:29:42;1.00;;;0.70;;
2289;SDS011;1153;47.986;7.898;2023-07-08T07:32:08;1.83;;;0.60;;
2289;SDS011;1153;47.986;7.898;2023-07-08T07:34:34;2.30;;;0.63;;
2289;SDS011;1153;47.986;7.898;2023-07-08T07:37:00;1.43;;;0.40;;
2289;SDS011;1153;47.986;7.898;2023-07-08T07:39:25;3.30;;;0.60;;
2289;SDS011;1153;47.986;7.898;2023-07-08T07:41:50;4.23;;;0.70;;
2289;SDS011;1153;47.986;7.898;2023-07-08T07:44:16;6.20;;;0.80;;
2289;SDS011;1153;47.986;7.898;2023-07-08T07:46:41;1.33;;;0.60;;
2289;SDS011;1153;47.986;7.898;2023-07-08T07:49:06;1.20;;;0.67;;
2289;SDS011;1153;47.986;7.898;2023-07-08T07:51:31;1.67;;;0.80;;
2289;SDS011;1153;47.986;7.898;2023-07-08T07:53:56;1.83;;;0.90;;
2289;SDS011;1153;47.986;7.898;2023-07-08T07:56:22;2.77;;;0.80;;
2289;SDS011;1153;47.986;7.898;2023-07-08T07:58:47;1.03;;;0.70;;
2289;SDS011;1153;47.986;7.898;2023-07-08T08:01:12;1.07;;;0.97;;
2289;SDS011;1153;47.986;7.898;2023-07-08T08:03:38;1.10;;;0.70;;
2289;SDS011;1153;47.986;7.898;2023-07-08T08:06:03;2.73;;;0.73;;
2289;SDS011;1153;47.986;7.898;2023-07-08T08:08:28;1.20;;;0.50;;
2289;SDS011;1153;47.986;7.898;2023-07-08T08:10:54;1.10;;;0.80;;
2289;SDS011;1153;47.986;7.898;2023-07-08T08:13:19;2.70;;;0.70;;
2289;SDS011;1153;47.986;7.898;2023-07-08T08:15:44;1.63;;;0.90;;
2289;SDS011;1153;47.986;7.898;2023-07-08T08:18:09;4.10;;;0.60;;
2289;SDS011;1153;47.986;7.898;2023-07-08T08:20:34;0.90;;;0.60;;
2289;SDS011;1153;47.986;7.898;2023-07-08T08:23:00;3.23;;;0.60;;
2289;SDS011;1153;47.986;7.898;2023-07-08T08:25:25;0.80;;;0.50;;
2289;SDS011;1153;47.986;7.898;2023-07-08T08:27:50;1.10;;;0.73;;
2289;SDS011;1153;47.986;7.898;2023-07-08T08:30:17;2.70;;;0.60;;
2289;SDS011;1153;47.986;7.898;2023-07-08T08:32:42;4.80;;;0.83;;
2289;SDS011;1153;47.986;7.898;2023-07-08T08:35:08;0.83;;;0.53;;
2289;SDS011;1153;47.986;7.898;2023-07-08T08:37:33;0.80;;;0.50;;
2289;SDS011;1153;47.986;7.898;2023-07-08T08:39:58;1.57;;;0.73;;
2289;SDS011;1153;47.986;7.898;2023-07-08T08:42:25;0.87;;;0.60;;
2289;SDS011;1153;47.986;7.898;2023-07-08T08:44:51;1.00;;;0.60;;
2289;SDS011;1153;47.986;7.898;2023-07-08T08:50:01;1.10;;;0.60;;
2289;SDS011;1153;47.986;7.898;2023-07-08T08:52:27;3.17;;;0.60;;
2289;SDS011;1153;47.986;7.898;2023-07-08T08:54:52;1.30;;;0.60;;
2289;SDS011;1153;47.986;7.898;2023-07-08T08:57:28;1.97;;;0.67;;
2289;SDS011;1153;47.986;7.898;2023-07-08T08:59:56;2.53;;;0.70;;
2289;SDS011;1153;47.986;7.898;2023-07-08T09:05:07;3.90;;;0.60;;
2289;SDS011;1153;47.986;7.898;2023-07-08T09:07:38;3.43;;;0.60;;
2289;SDS011;1153;47.986;7.898;2023-07-08T09:10:09;1.00;;;0.60;;
2289;SDS011;1153;47.986;7.898;2023-07-08T09:12:37;1.00;;;0.50;;
2289;SDS011;1153;47.986;7.898;2023-07-08T09:15:12;1.10;;;0.60;;
2289;SDS011;1153;47.986;7.898;2023-07-08T09:17:38;0.80;;;0.60;;
2289;SDS011;1153;47.986;7.898;2023-07-08T09:27:40;3.77;;;0.53;;
2289;SDS011;1153;47.986;7.898;2023-07-08T09:30:07;3.53;;;0.53;;
2289;SDS011;1153;47.986;7.898;2023-07-08T09:32:34;1.73;;;0.50;;
2289;SDS011;1153;47.986;7.898;2023-07-08T09:35:04;0.90;;;0.60;;
2289;SDS011;1153;47.986;7.898;2023-07-08T09:37:30;2.23;;;0.60;;
2289;SDS011;1153;47.986;7.898;2023-07-08T09:39:56;1.90;;;1.23;;
2289;SDS011;1153;47.986;7.898;2023-07-08T09:42:23;1.13;;;0.70;;
2289;SDS011;1153;47.986;7.898;2023-07-08T09:44:54;1.17;;;1.07;;
2289;SDS011;1153;47.986;7.898;2023-07-08T09:47:21;2.17;;;1.13;;
2289;SDS011;1153;47.986;7.898;2023-07-08T09:49:46;1.53;;;0.70;;
2289;SDS011;1153;47.986;7.898;2023-07-08T09:52:12;1.53;;;0.90;;
2289;SDS011;1153;47.986;7.898;2023-07-08T09:54:37;0.90;;;0.50;;
2289;SDS011;1153;47.986;7.898;2023-07-08T09:57:09;1.20;;;0.63;;
2289;SDS011;1153;47.986;7.898;2023-07-08T09:59:42;1.83;;;0.60;;
2289;SDS011;1153;47.986;7.898;2023-07-08T10:04:55;3.13;;;0.77;;
2289;SDS011;1153;47.986;7.898;2023-07-08T10:07:21;1.67;;;0.80;;
2289;SDS011;1153;47.986;7.898;2023-07-08T10:09:47;2.00;;;0.70;;
2289;SDS011;1153;47.986;7.898;2023-07-08T10:12:14;3.33;;;0.50;;
2289;SDS011;1153;47.986;7.898;2023-07-08T10:14:42;3.00;;;0.60;;
2289;SDS011;1153;47.986;7.898;2023-07-08T10:17:13;3.13;;;0.70;;
2289;SDS011;1153;47.986;7.898;2023-07-08T10:19:38;0.90;;;0.50;;
2289;SDS011;1153;47.986;7.898;2023-07-08T10:27:44;0.90;;;0.50;;
2289;SDS011;1153;47.986;7.898;2023-07-08T10:30:19;0.90;;;0.50;;
2289;SDS011;1153;47.986;7.898;2023-07-08T10:32:49;1.00;;;0.70;;
2289;SDS011;1153;47.986;7.898;2023-07-08T10:35:21;1.57;;;0.50;;
2289;SDS011;1153;47.986;7.898;2023-07-08T10:40:46;0.90;;;0.57;;
2289;SDS011;1153;47.986;7.898;2023-07-08T10:48:09;0.80;;;0.50;;
2289;SDS011;1153;47.986;7.898;2023-07-08T10:55:48;0.90;;;0.60;;
2289;SDS011;1153;47.986;7.898;2023-07-08T11:01:08;4.37;;;1.00;;
2289;SDS011;1153;47.986;7.898;2023-07-08T11:08:26;0.90;;;0.50;;
2289;SDS011;1153;47.986;7.898;2023-07-08T11:10:53;0.90;;;0.60;;
2289;SDS011;1153;47.986;7.898;2023-07-08T11:13:21;0.80;;;0.50;;
2289;SDS011;1153;47.986;7.898;2023-07-08T11:20:40;0.90;;;0.68;;
2289;SDS011;1153;47.986;7.898;2023-07-08T11:25:47;1.10;;;1.00;;
2289;SDS011;1153;47.986;7.898;2023-07-08T11:28:14;0.93;;;0.50;;
2289;SDS011;1153;47.986;7.898;2023-07-08T11:30:40;0.80;;;0.60;;
2289;SDS011;1153;47.986;7.898;2023-07-08T11:33:09;0.90;;;0.63;;
2289;SDS011;1153;47.986;7.898;2023-07-08T11:35:39;1.93;;;0.70;;
2289;SDS011;1153;47.986;7.898;2023-07-08T11:38:05;1.00;;;0.80;;
2289;SDS011;1153;47.986;7.898;2023-07-08T11:40:31;1.40;;;0.97;;
2289;SDS011;1153;47.986;7.898;2023-07-08T11:43:03;1.50;;;0.70;;
2289;SDS011;1153;47.986;7.898;2023-07-08T11:45:35;1.07;;;0.60;;
2289;SDS011;1153;47.986;7.898;2023-07-08T11:50:46;1.10;;;1.00;;
2289;SDS011;1153;47.986;7.898;2023-07-08T11:55:56;0.90;;;0.57;;
2289;SDS011;1153;47.986;7.898;2023-07-08T11:58:28;1.53;;;0.97;;
2289;SDS011;1153;47.986;7.898;2023-07-08T12:01:37;1.00;;;0.70;;
2289;SDS011;1153;47.986;7.898;2023-07-08T12:03:50;1.50;;;0.70;;
2289;SDS011;1153;47.986;7.898;2023-07-08T12:08:53;1.27;;;0.70;;
2289;SDS011;1153;47.986;7.898;2023-07-08T12:11:18;2.93;;;2.73;;
2289;SDS011;1153;47.986;7.898;2023-07-08T12:13:49;2.40;;;0.70;;
2289;SDS011;1153;47.986;7.898;2023-07-08T12:16:14;0.90;;;0.50;;
2289;SDS011;1153;47.986;7.898;2023-07-08T12:18:40;1.10;;;0.73;;
2289;SDS011;1153;47.986;7.898;2023-07-08T12:21:11;1.53;;;0.60;;
2289;SDS011;1153;47.986;7.898;2023-07-08T12:23:37;1.20;;;0.50;;
2289;SDS011;1153;47.986;7.898;2023-07-08T12:26:02;0.90;;;0.70;;
2289;SDS011;1153;47.986;7.898;2023-07-08T12:28:30;1.70;;;0.60;;
2289;SDS011;1153;47.986;7.898;2023-07-08T12:30:55;2.40;;;0.80;;
2289;SDS011;1153;47.986;7.898;2023-07-08T12:33:29;1.07;;;0.50;;
2289;SDS011;1153;47.986;7.898;2023-07-08T12:35:55;1.20;;;0.70;;
2289;SDS011;1153;47.986;7.898;2023-07-08T12:38:28;3.17;;;0.77;;
2289;SDS011;1153;47.986;7.898;2023-07-08T12:40:55;1.00;;;0.70;;
2289;SDS011;1153;47.986;7.898;2023-07-08T12:43:20;1.87;;;0.70;;
2289;SDS011;1153;47.986;7.898;2023-07-08T12:45:45;1.20;;;0.90;;
2289;SDS011;1153;47.986;7.898;2023-07-08T12:48:11;1.43;;;0.73;;
2289;SDS011;1153;47.986;7.898;2023-07-08T12:50:36;1.60;;;1.03;;
2289;SDS011;1153;47.986;7.898;2023-07-08T12:53:03;3.60;;;0.60;;
2289;SDS011;1153;47.986;7.898;2023-07-08T12:55:34;2.17;;;0.90;;
2289;SDS011;1153;47.986;7.898;2023-07-08T12:58:00;1.30;;;0.63;;
2289;SDS011;1153;47.986;7.898;2023-07-08T13:00:29;0.93;;;0.57;;
2289;SDS011;1153;47.986;7.898;2023-07-08T13:03:00;1.10;;;0.70;;
2289;SDS011;1153;47.986;7.898;2023-07-08T13:05:27;2.80;;;1.30;;
2289;SDS011;1153;47.986;7.898;2023-07-08T13:07:52;9.80;;;0.90;;
2289;SDS011;1153;47.986;7.898;2023-07-08T13:10:19;0.80;;;0.50;;
2289;SDS011;1153;47.986;7.898;2023-07-08T13:12:45;3.70;;;0.70;;
2289;SDS011;1153;47.986;7.898;2023-07-08T13:15:13;2.60;;;0.70;;
2289;SDS011;1153;47.986;7.898;2023-07-08T13:17:42;1.10;;;0.77;;
2289;SDS011;1153;47.986;7.898;2023-07-08T13:20:09;4.50;;;0.80;;
2289;SDS011;1153;47.986;7.898;2023-07-08T13:22:38;2.43;;;1.23;;
2289;SDS011;1153;47.986;7.898;2023-07-08T13:25:09;1.00;;;0.70;;
2289;SDS011;1153;47.986;7.898;2023-07-08T13:27:35;5.20;;;0.70;;
2289;SDS011;1153;47.986;7.898;2023-07-08T13:30:10;1.63;;;0.80;;
2289;SDS011;1153;47.986;7.898;2023-07-08T13:32:39;4.00;;;0.60;;
2289;SDS011;1153;47.986;7.898;2023-07-08T13:35:04;2.93;;;1.23;;
2289;SDS011;1153;47.986;7.898;2023-07-08T13:37:30;2.20;;;0.90;;
2289;SDS011;1153;47.986;7.898;2023-07-08T13:39:56;3.23;;;0.80;;
2289;SDS011;1153;47.986;7.898;2023-07-08T13:42:21;1.53;;;0.80;;
2289;SDS011;1153;47.986;7.898;2023-07-08T13:44:47;1.17;;;1.07;;
2289;SDS011;1153;47.986;7.898;2023-07-08T13:47:22;2.80;;;1.00;;
2289;SDS011;1153;47.986;7.898;2023-07-08T13:49:48;1.00;;;0.90;;
2289;SDS011;1153;47.986;7.898;2023-07-08T13:52:17;1.37;;;1.17;;
2289;SDS011;1153;47.986;7.898;2023-07-08T13:54:46;3.07;;;0.80;;
2289;SDS011;1153;47.986;7.898;2023-07-08T13:57:14;1.07;;;0.90;;
2289;SDS011;1153;47.986;7.898;2023-07-08T13:59:39;1.40;;;0.90;;
2289;SDS011;1153;47.986;7.898;2023-07-08T14:02:13;2.20;;;1.17;;
2289;SDS011;1153;47.986;7.898;2023-07-08T14:04:39;1.30;;;0.97;;
2289;SDS011;1153;47.986;7.898;2023-07-08T14:07:05;1.40;;;1.10;;
2289;SDS011;1153;47.986;7.898;2023-07-08T14:09:32;1.40;;;1.30;;
2289;SDS011;1153;47.986;7.898;2023-07-08T14:11:58;2.27;;;1.30;;
2289;SDS011;1153;47.986;7.898;2023-07-08T14:14:23;2.17;;;1.20;;
2289;SDS011;1153;47.986;7.898;2023-07-08T14:16:49;1.67;;;1.20;;
2289;SDS011;1153;47.986;7.898;2023-07-08T14:19:21;1.40;;;1.17;;
2289;SDS011;1153;47.986;7.898;2023-07-08T14:21:49;2.03;;;0.70;;
2289;SDS011;1153;47.986;7.898;2023-07-08T14:24:15;4.70;;;1.93;;
2289;SDS011;1153;47.986;7.898;2023-07-08T14:26:41;2.07;;;1.37;;
2289;SDS011;1153;47.986;7.898;2023-07-08T14:29:07;2.13;;;1.50;;
2289;SDS011;1153;47.986;7.898;2023-07-08T14:31:32;2.40;;;1.30;;
2289;SDS011;1153;47.986;7.898;2023-07-08T14:34:00;3.43;;;1.40;;
2289;SDS011;1153;47.986;7.898;2023-07-08T14:36:26;1.40;;;0.90;;
2289;SDS011;1153;47.986;7.898;2023-07-08T14:38:52;1.47;;;1.10;;
2289;SDS011;1153;47.986;7.898;2023-07-08T14:41:17;1.97;;;1.30;;
2289;SDS011;1153;47.986;7.898;2023-07-08T14:43:42;2.13;;;1.40;;
2289;SDS011;1153;47.986;7.898;2023-07-08T14:46:08;1.67;;;0.70;;
2289;SDS011;1153;47.986;7.898;2023-07-08T14:48:34;1.40;;;1.00;;
2289;SDS011;1153;47.986;7.898;2023-07-08T14:50:59;3.20;;;1.40;;
2289;SDS011;1153;47.986;7.898;2023-07-08T14:53:24;2.37;;;1.73;;
2289;SDS011;1153;47.986;7.898;2023-07-08T14:55:53;1.70;;;1.37;;
2289;SDS011;1153;47.986;7.898;2023-07-08T14:58:21;1.47;;;1.17;;
2289;SDS011;1153;47.986;7.898;2023-07-08T15:00:47;1.50;;;1.03;;
2289;SDS011;1153;47.986;7.898;2023-07-08T15:03:12;3.47;;;1.37;;
2289;SDS011;1153;47.986;7.898;2023-07-08T15:05:37;4.60;;;0.93;;
2289;SDS011;1153;47.986;7.898;2023-07-08T15:08:02;1.57;;;1.47;;
2289;SDS011;1153;47.986;7.898;2023-07-08T15:10:30;4.03;;;2.00;;
2289;SDS011;1153;47.986;7.898;2023-07-08T15:12:55;3.47;;;1.27;;
2289;SDS011;1153;47.986;7.898;2023-07-08T15:15:28;3.53;;;1.57;;
2289;SDS011;1153;47.986;7.898;2023-07-08T15:17:55;1.30;;;1.13;;
2289;SDS011;1153;47.986;7.898;2023-07-08T15:20:20;1.40;;;1.30;;
2289;SDS011;1153;47.986;7.898;2023-07-08T15:22:47;1.57;;;1.43;;
2289;SDS011;1153;47.986;7.898;2023-07-08T15:25:12;1.43;;;1.07;;
2289;SDS011;1153;47.986;7.898;2023-07-08T15:27:38;1.63;;;1.03;;
2289;SDS011;1153;47.986;7.898;2023-07-08T15:30:05;1.50;;;1.20;;
2289;SDS011;1153;47.986;7.898;2023-07-08T15:32:35;1.27;;;1.17;;
2289;SDS011;1153;47.986;7.898;2023-07-08T15:35:00;1.97;;;1.20;;
2289;SDS011;1153;47.986;7.898;2023-07-08T15:37:26;2.80;;;1.47;;
2289;SDS011;1153;47.986;7.898;2023-07-08T15:39:51;2.07;;;1.10;;
2289;SDS011;1153;47.986;7.898;2023-07-08T15:42:16;2.40;;;1.20;;
2289;SDS011;1153;47.986;7.898;2023-07-08T15:44:41;1.33;;;1.00;;
2289;SDS011;1153;47.986;7.898;2023-07-08T15:47:09;1.10;;;1.00;;
2289;SDS011;1153;47.986;7.898;2023-07-08T15:49:36;1.47;;;1.37;;
2289;SDS011;1153;47.986;7.898;2023-07-08T15:52:02;2.50;;;1.20;;
2289;SDS011;1153;47.986;7.898;2023-07-08T15:54:27;1.10;;;0.80;;
2289;SDS011;1153;47.986;7.898;2023-07-08T15:56:52;1.47;;;1.10;;
2289;SDS011;1153;47.986;7.898;2023-07-08T15:59:23;3.47;;;1.40;;
2289;SDS011;1153;47.986;7.898;2023-07-08T16:01:50;5.30;;;1.40;;
2289;SDS011;1153;47.986;7.898;2023-07-08T16:04:22;1.47;;;1.00;;
2289;SDS011;1153;47.986;7.898;2023-07-08T16:06:48;2.00;;;1.40;;
2289;SDS011;1153;47.986;7.898;2023-07-08T16:09:13;3.57;;;1.20;;
2289;SDS011;1153;47.986;7.898;2023-07-08T16:11:38;2.13;;;1.00;;
2289;SDS011;1153;47.986;7.898;2023-07-08T16:14:03;2.47;;;1.87;;